sensor_id;sensor_type;location;lat;lon;timestamp;P1;durP1;ratioP1;P2;durP2;ratioP2
68947;SDS011;55996;49.546;7.400;2022-12-10T00:01:39;14.30;;;9.67;;
68947;SDS011;55996;49.546;7.400;2022-12-10T00:04:06;13.60;;;9.30;;
68947;SDS011;55996;49.546;7.400;2022-12-10T00:06:33;16.10;;;10.00;;
68947;SDS011;55996;49.546;7.400;2022-12-10T00:08:59;13.23;;;10.37;;
68947;SDS011;55996;49.546;7.400;2022-12-10T00:11:26;14.10;;;10.17;;
68947;SDS011;55996;49.546;7.400;2022-12-10T00:13:52;13.77;;;10.20;;
68947;SDS011;55996;49.546;7.400;2022-12-10T00:16:18;13.03;;;10.33;;
68947;SDS011;55996;49.546;7.400;2022-12-10T00:18:45;16.07;;;10.13;;
68947;SDS011;55996;49.546;7.400;2022-12-10T00:21:12;12.27;;;8.83;;
68947;SDS011;55996;49.546;7.400;2022-12-10T00:23:39;14.30;;;10.07;;
68947;SDS011;55996;49.546;7.400;2022-12-10T00:26:06;12.17;;;9.93;;
68947;SDS011;55996;49.546;7.400;2022-12-10T00:28:40;13.00;;;9.87;;
68947;SDS011;55996;49.546;7.400;2022-12-10T00:31:07;11.37;;;9.13;;
68947;SDS011;55996;49.546;7.400;2022-12-10T00:33:35;13.70;;;10.20;;
68947;SDS011;55996;49.546;7.400;2022-12-10T00:36:05;12.07;;;9.47;;
68947;SDS011;55996;49.546;7.400;2022-12-10T00:38:38;13.43;;;10.07;;
68947;SDS011;55996;49.546;7.400;2022-12-10T00:41:05;12.33;;;9.10;;
68947;SDS011;55996;49.546;7.400;2022-12-10T00:43:31;11.27;;;9.03;;
68947;SDS011;55996;49.546;7.400;2022-12-10T00:45:57;13.57;;;9.83;;
68947;SDS011;55996;49.546;7.400;2022-12-10T00:48:23;11.57;;;9.37;;
68947;SDS011;55996;49.546;7.400;2022-12-10T00:50:58;13.00;;;9.40;;
68947;SDS011;55996;49.546;7.400;2022-12-10T00:53:32;11.47;;;8.63;;
68947;SDS011;55996;49.546;7.400;2022-12-10T00:55:59;12.03;;;9.57;;
68947;SDS011;55996;49.546;7.400;2022-12-10T00:58:29;12.40;;;9.23;;
68947;SDS011;55996;49.546;7.400;2022-12-10T01:03:59;13.03;;;9.27;;
68947;SDS011;55996;49.546;7.400;2022-12-10T01:06:30;11.53;;;9.27;;
68947;SDS011;55996;49.546;7.400;2022-12-10T01:09:03;11.80;;;9.27;;
68947;SDS011;55996;49.546;7.400;2022-12-10T01:11:32;11.67;;;8.67;;
68947;SDS011;55996;49.546;7.400;2022-12-10T01:14:00;12.77;;;9.27;;
68947;SDS011;55996;49.546;7.400;2022-12-10T01:16:26;12.67;;;9.90;;
68947;SDS011;55996;49.546;7.400;2022-12-10T01:18:53;13.63;;;10.20;;
68947;SDS011;55996;49.546;7.400;2022-12-10T01:21:19;13.13;;;10.47;;
68947;SDS011;55996;49.546;7.400;2022-12-10T01:23:46;13.50;;;10.70;;
68947;SDS011;55996;49.546;7.400;2022-12-10T01:26:14;12.03;;;9.73;;
68947;SDS011;55996;49.546;7.400;2022-12-10T01:28:42;12.47;;;10.07;;
68947;SDS011;55996;49.546;7.400;2022-12-10T01:31:10;13.93;;;10.00;;
68947;SDS011;55996;49.546;7.400;2022-12-10T01:33:39;12.50;;;9.47;;
68947;SDS011;55996;49.546;7.400;2022-12-10T01:36:06;12.53;;;9.80;;
68947;SDS011;55996;49.546;7.400;2022-12-10T01:38:34;11.43;;;8.90;;
68947;SDS011;55996;49.546;7.400;2022-12-10T01:41:00;13.33;;;10.43;;
68947;SDS011;55996;49.546;7.400;2022-12-10T01:43:26;12.83;;;10.03;;
68947;SDS011;55996;49.546;7.400;2022-12-10T01:45:52;12.73;;;9.93;;
68947;SDS011;55996;49.546;7.400;2022-12-10T01:48:17;11.60;;;9.30;;
68947;SDS011;55996;49.546;7.400;2022-12-10T01:50:44;10.67;;;9.00;;
68947;SDS011;55996;49.546;7.400;2022-12-10T01:53:09;12.50;;;9.97;;
68947;SDS011;55996;49.546;7.400;2022-12-10T01:55:41;13.27;;;9.83;;
68947;SDS011;55996;49.546;7.400;2022-12-10T01:58:13;11.17;;;9.23;;
68947;SDS011;55996;49.546;7.400;2022-12-10T02:00:43;11.53;;;8.77;;
68947;SDS011;55996;49.546;7.400;2022-12-10T02:03:33;10.87;;;8.37;;
68947;SDS011;55996;49.546;7.400;2022-12-10T02:11:37;9.63;;;8.50;;
68947;SDS011;55996;49.546;7.400;2022-12-10T02:14:14;10.27;;;8.37;;
68947;SDS011;55996;49.546;7.400;2022-12-10T02:16:55;11.27;;;8.67;;
68947;SDS011;55996;49.546;7.400;2022-12-10T02:22:02;10.60;;;8.57;;
68947;SDS011;55996;49.546;7.400;2022-12-10T02:24:30;11.33;;;8.57;;
68947;SDS011;55996;49.546;7.400;2022-12-10T02:29:50;9.77;;;7.87;;
68947;SDS011;55996;49.546;7.400;2022-12-10T02:32:19;10.30;;;8.47;;
68947;SDS011;55996;49.546;7.400;2022-12-10T02:34:55;10.40;;;8.37;;
68947;SDS011;55996;49.546;7.400;2022-12-10T02:37:27;9.80;;;8.60;;
68947;SDS011;55996;49.546;7.400;2022-12-10T02:39:57;11.27;;;8.53;;
68947;SDS011;55996;49.546;7.400;2022-12-10T02:42:26;10.20;;;8.23;;
68947;SDS011;55996;49.546;7.400;2022-12-10T02:44:55;11.97;;;9.03;;
68947;SDS011;55996;49.546;7.400;2022-12-10T02:47:22;10.67;;;8.23;;
68947;SDS011;55996;49.546;7.400;2022-12-10T02:49:50;10.10;;;8.23;;
68947;SDS011;55996;49.546;7.400;2022-12-10T02:52:19;11.77;;;8.83;;
68947;SDS011;55996;49.546;7.400;2022-12-10T02:54:46;10.67;;;8.77;;
68947;SDS011;55996;49.546;7.400;2022-12-10T03:02:33;10.47;;;8.50;;
68947;SDS011;55996;49.546;7.400;2022-12-10T03:07:32;11.07;;;8.60;;
68947;SDS011;55996;49.546;7.400;2022-12-10T03:10:44;10.60;;;8.17;;
68947;SDS011;55996;49.546;7.400;2022-12-10T03:12:59;12.33;;;8.60;;
68947;SDS011;55996;49.546;7.400;2022-12-10T03:15:28;9.80;;;8.80;;
68947;SDS011;55996;49.546;7.400;2022-12-10T03:17:58;11.77;;;9.17;;
68947;SDS011;55996;49.546;7.400;2022-12-10T03:20:27;11.17;;;8.97;;
68947;SDS011;55996;49.546;7.400;2022-12-10T03:22:57;11.43;;;8.87;;
68947;SDS011;55996;49.546;7.400;2022-12-10T03:25:24;9.60;;;8.30;;
68947;SDS011;55996;49.546;7.400;2022-12-10T03:27:53;9.67;;;8.13;;
68947;SDS011;55996;49.546;7.400;2022-12-10T03:30:20;11.30;;;9.63;;
68947;SDS011;55996;49.546;7.400;2022-12-10T03:32:46;11.13;;;9.20;;
68947;SDS011;55996;49.546;7.400;2022-12-10T03:35:12;11.13;;;8.57;;
68947;SDS011;55996;49.546;7.400;2022-12-10T03:37:38;11.90;;;9.50;;
68947;SDS011;55996;49.546;7.400;2022-12-10T03:40:04;12.00;;;8.83;;
68947;SDS011;55996;49.546;7.400;2022-12-10T03:42:31;11.50;;;9.10;;
68947;SDS011;55996;49.546;7.400;2022-12-10T03:44:57;12.23;;;9.80;;
68947;SDS011;55996;49.546;7.400;2022-12-10T03:47:22;11.83;;;9.80;;
68947;SDS011;55996;49.546;7.400;2022-12-10T03:49:48;11.30;;;9.20;;
68947;SDS011;55996;49.546;7.400;2022-12-10T03:52:14;10.93;;;8.67;;
68947;SDS011;55996;49.546;7.400;2022-12-10T03:54:40;13.80;;;9.17;;
68947;SDS011;55996;49.546;7.400;2022-12-10T03:57:05;12.07;;;9.00;;
68947;SDS011;55996;49.546;7.400;2022-12-10T03:59:30;10.37;;;8.63;;
68947;SDS011;55996;49.546;7.400;2022-12-10T04:01:56;11.40;;;8.43;;
68947;SDS011;55996;49.546;7.400;2022-12-10T04:04:21;11.40;;;8.23;;
68947;SDS011;55996;49.546;7.400;2022-12-10T04:06:47;12.83;;;8.83;;
68947;SDS011;55996;49.546;7.400;2022-12-10T04:09:13;10.13;;;8.03;;
68947;SDS011;55996;49.546;7.400;2022-12-10T04:11:39;10.37;;;8.67;;
68947;SDS011;55996;49.546;7.400;2022-12-10T04:14:05;10.70;;;8.73;;
68947;SDS011;55996;49.546;7.400;2022-12-10T04:16:49;10.93;;;8.63;;
68947;SDS011;55996;49.546;7.400;2022-12-10T04:19:15;9.70;;;8.27;;
68947;SDS011;55996;49.546;7.400;2022-12-10T04:21:43;10.30;;;8.60;;
68947;SDS011;55996;49.546;7.400;2022-12-10T04:24:29;10.80;;;8.87;;
68947;SDS011;55996;49.546;7.400;2022-12-10T04:29:48;12.10;;;9.50;;
68947;SDS011;55996;49.546;7.400;2022-12-10T04:32:14;11.47;;;8.67;;
68947;SDS011;55996;49.546;7.400;2022-12-10T04:34:39;11.37;;;9.03;;
68947;SDS011;55996;49.546;7.400;2022-12-10T04:37:05;11.20;;;9.23;;
68947;SDS011;55996;49.546;7.400;2022-12-10T04:39:31;13.60;;;9.20;;
68947;SDS011;55996;49.546;7.400;2022-12-10T04:41:57;10.07;;;8.43;;
68947;SDS011;55996;49.546;7.400;2022-12-10T04:44:24;9.70;;;8.57;;
68947;SDS011;55996;49.546;7.400;2022-12-10T04:46:49;10.37;;;8.47;;
68947;SDS011;55996;49.546;7.400;2022-12-10T04:49:14;13.53;;;9.40;;
68947;SDS011;55996;49.546;7.400;2022-12-10T04:51:41;10.27;;;8.63;;
68947;SDS011;55996;49.546;7.400;2022-12-10T04:54:07;11.03;;;8.93;;
68947;SDS011;55996;49.546;7.400;2022-12-10T04:56:33;11.30;;;9.00;;
68947;SDS011;55996;49.546;7.400;2022-12-10T04:58:59;10.23;;;9.03;;
68947;SDS011;55996;49.546;7.400;2022-12-10T05:01:25;11.20;;;9.00;;
68947;SDS011;55996;49.546;7.400;2022-12-10T05:03:52;11.13;;;9.13;;
68947;SDS011;55996;49.546;7.400;2022-12-10T05:06:17;10.37;;;8.67;;
68947;SDS011;55996;49.546;7.400;2022-12-10T05:08:44;11.93;;;8.53;;
68947;SDS011;55996;49.546;7.400;2022-12-10T05:11:11;11.33;;;9.00;;
68947;SDS011;55996;49.546;7.400;2022-12-10T05:13:38;11.30;;;8.83;;
68947;SDS011;55996;49.546;7.400;2022-12-10T05:16:04;11.70;;;8.43;;
68947;SDS011;55996;49.546;7.400;2022-12-10T05:18:31;9.37;;;8.30;;
68947;SDS011;55996;49.546;7.400;2022-12-10T05:21:00;9.73;;;8.27;;
68947;SDS011;55996;49.546;7.400;2022-12-10T05:23:27;8.70;;;7.07;;
68947;SDS011;55996;49.546;7.400;2022-12-10T05:28:38;9.60;;;8.00;;
68947;SDS011;55996;49.546;7.400;2022-12-10T05:31:13;9.97;;;7.53;;
68947;SDS011;55996;49.546;7.400;2022-12-10T05:33:43;9.90;;;8.20;;
68947;SDS011;55996;49.546;7.400;2022-12-10T05:36:10;9.57;;;8.43;;
68947;SDS011;55996;49.546;7.400;2022-12-10T05:38:37;9.80;;;8.23;;
68947;SDS011;55996;49.546;7.400;2022-12-10T05:41:08;11.00;;;7.10;;
68947;SDS011;55996;49.546;7.400;2022-12-10T05:43:36;7.87;;;6.73;;
68947;SDS011;55996;49.546;7.400;2022-12-10T05:46:03;11.23;;;7.43;;
68947;SDS011;55996;49.546;7.400;2022-12-10T05:48:30;10.57;;;7.13;;
68947;SDS011;55996;49.546;7.400;2022-12-10T05:50:57;9.80;;;7.60;;
68947;SDS011;55996;49.546;7.400;2022-12-10T05:53:23;9.47;;;7.43;;
68947;SDS011;55996;49.546;7.400;2022-12-10T05:55:49;9.37;;;7.23;;
68947;SDS011;55996;49.546;7.400;2022-12-10T05:58:15;8.67;;;7.30;;
68947;SDS011;55996;49.546;7.400;2022-12-10T06:00:41;8.10;;;6.87;;
68947;SDS011;55996;49.546;7.400;2022-12-10T06:03:07;9.23;;;7.20;;
68947;SDS011;55996;49.546;7.400;2022-12-10T06:05:38;8.57;;;7.40;;
68947;SDS011;55996;49.546;7.400;2022-12-10T06:08:05;8.37;;;6.10;;
68947;SDS011;55996;49.546;7.400;2022-12-10T06:10:35;8.87;;;7.03;;
68947;SDS011;55996;49.546;7.400;2022-12-10T06:13:01;7.87;;;6.63;;
68947;SDS011;55996;49.546;7.400;2022-12-10T06:15:30;8.93;;;7.00;;
68947;SDS011;55996;49.546;7.400;2022-12-10T06:17:57;8.40;;;6.90;;
68947;SDS011;55996;49.546;7.400;2022-12-10T06:20:24;8.17;;;6.57;;
68947;SDS011;55996;49.546;7.400;2022-12-10T06:22:50;9.93;;;7.63;;
68947;SDS011;55996;49.546;7.400;2022-12-10T06:25:16;8.13;;;6.80;;
68947;SDS011;55996;49.546;7.400;2022-12-10T06:27:42;9.67;;;7.07;;
68947;SDS011;55996;49.546;7.400;2022-12-10T06:30:08;7.90;;;6.70;;
68947;SDS011;55996;49.546;7.400;2022-12-10T06:32:34;8.90;;;6.90;;
68947;SDS011;55996;49.546;7.400;2022-12-10T06:34:59;8.43;;;7.07;;
68947;SDS011;55996;49.546;7.400;2022-12-10T06:37:25;9.23;;;7.33;;
68947;SDS011;55996;49.546;7.400;2022-12-10T06:39:51;11.17;;;7.43;;
68947;SDS011;55996;49.546;7.400;2022-12-10T06:42:17;8.30;;;6.93;;
68947;SDS011;55996;49.546;7.400;2022-12-10T06:44:43;9.77;;;7.57;;
68947;SDS011;55996;49.546;7.400;2022-12-10T06:47:08;9.70;;;7.93;;
68947;SDS011;55996;49.546;7.400;2022-12-10T06:49:34;9.43;;;7.47;;
68947;SDS011;55996;49.546;7.400;2022-12-10T06:51:59;9.53;;;7.50;;
68947;SDS011;55996;49.546;7.400;2022-12-10T06:54:25;7.37;;;6.63;;
68947;SDS011;55996;49.546;7.400;2022-12-10T06:56:50;8.43;;;7.03;;
68947;SDS011;55996;49.546;7.400;2022-12-10T06:59:16;8.33;;;7.27;;
68947;SDS011;55996;49.546;7.400;2022-12-10T07:01:41;7.80;;;7.00;;
68947;SDS011;55996;49.546;7.400;2022-12-10T07:04:07;9.03;;;7.50;;
68947;SDS011;55996;49.546;7.400;2022-12-10T07:06:33;8.53;;;7.07;;
68947;SDS011;55996;49.546;7.400;2022-12-10T07:08:59;7.57;;;6.53;;
68947;SDS011;55996;49.546;7.400;2022-12-10T07:11:24;8.50;;;7.17;;
68947;SDS011;55996;49.546;7.400;2022-12-10T07:13:50;9.17;;;7.23;;
68947;SDS011;55996;49.546;7.400;2022-12-10T07:16:20;9.93;;;8.17;;
68947;SDS011;55996;49.546;7.400;2022-12-10T07:18:48;9.50;;;8.47;;
68947;SDS011;55996;49.546;7.400;2022-12-10T07:21:22;10.97;;;8.60;;
68947;SDS011;55996;49.546;7.400;2022-12-10T07:24:13;9.73;;;8.33;;
68947;SDS011;55996;49.546;7.400;2022-12-10T07:26:41;10.03;;;7.90;;
68947;SDS011;55996;49.546;7.400;2022-12-10T07:29:09;11.07;;;8.47;;
68947;SDS011;55996;49.546;7.400;2022-12-10T07:31:38;9.60;;;7.93;;
68947;SDS011;55996;49.546;7.400;2022-12-10T07:34:04;11.20;;;7.73;;
68947;SDS011;55996;49.546;7.400;2022-12-10T07:36:30;8.70;;;7.50;;
68947;SDS011;55996;49.546;7.400;2022-12-10T07:38:55;10.77;;;7.60;;
68947;SDS011;55996;49.546;7.400;2022-12-10T07:41:21;10.03;;;7.77;;
68947;SDS011;55996;49.546;7.400;2022-12-10T07:43:47;9.57;;;7.70;;
68947;SDS011;55996;49.546;7.400;2022-12-10T07:48:44;9.30;;;7.33;;
68947;SDS011;55996;49.546;7.400;2022-12-10T07:51:11;11.40;;;7.87;;
68947;SDS011;55996;49.546;7.400;2022-12-10T07:53:37;10.23;;;8.33;;
68947;SDS011;55996;49.546;7.400;2022-12-10T07:56:02;10.27;;;8.73;;
68947;SDS011;55996;49.546;7.400;2022-12-10T07:58:28;11.77;;;9.43;;
68947;SDS011;55996;49.546;7.400;2022-12-10T08:00:53;10.80;;;8.20;;
68947;SDS011;55996;49.546;7.400;2022-12-10T08:03:19;17.80;;;11.37;;
68947;SDS011;55996;49.546;7.400;2022-12-10T08:05:44;10.80;;;8.20;;
68947;SDS011;55996;49.546;7.400;2022-12-10T08:08:09;11.03;;;8.40;;
68947;SDS011;55996;49.546;7.400;2022-12-10T08:10:36;11.43;;;8.80;;
68947;SDS011;55996;49.546;7.400;2022-12-10T08:13:03;10.37;;;8.60;;
68947;SDS011;55996;49.546;7.400;2022-12-10T08:15:29;9.83;;;7.90;;
68947;SDS011;55996;49.546;7.400;2022-12-10T08:17:55;13.00;;;9.10;;
68947;SDS011;55996;49.546;7.400;2022-12-10T08:20:21;12.60;;;9.63;;
68947;SDS011;55996;49.546;7.400;2022-12-10T08:22:47;20.13;;;12.23;;
68947;SDS011;55996;49.546;7.400;2022-12-10T08:25:12;10.53;;;7.97;;
68947;SDS011;55996;49.546;7.400;2022-12-10T08:27:37;8.93;;;7.10;;
68947;SDS011;55996;49.546;7.400;2022-12-10T08:30:03;10.03;;;7.20;;
68947;SDS011;55996;49.546;7.400;2022-12-10T08:32:29;10.37;;;7.43;;
68947;SDS011;55996;49.546;7.400;2022-12-10T08:34:54;9.00;;;7.57;;
68947;SDS011;55996;49.546;7.400;2022-12-10T08:37:21;9.67;;;7.50;;
68947;SDS011;55996;49.546;7.400;2022-12-10T08:39:47;9.63;;;7.17;;
68947;SDS011;55996;49.546;7.400;2022-12-10T08:42:12;8.47;;;6.97;;
68947;SDS011;55996;49.546;7.400;2022-12-10T08:44:38;8.97;;;7.67;;
68947;SDS011;55996;49.546;7.400;2022-12-10T08:47:04;10.07;;;8.20;;
68947;SDS011;55996;49.546;7.400;2022-12-10T08:49:29;8.40;;;6.90;;
68947;SDS011;55996;49.546;7.400;2022-12-10T08:51:55;9.27;;;7.53;;
68947;SDS011;55996;49.546;7.400;2022-12-10T08:54:20;9.57;;;7.10;;
68947;SDS011;55996;49.546;7.400;2022-12-10T08:56:46;8.83;;;6.47;;
68947;SDS011;55996;49.546;7.400;2022-12-10T08:59:11;8.27;;;6.80;;
68947;SDS011;55996;49.546;7.400;2022-12-10T09:01:36;10.87;;;7.57;;
68947;SDS011;55996;49.546;7.400;2022-12-10T09:04:02;13.33;;;10.00;;
68947;SDS011;55996;49.546;7.400;2022-12-10T09:06:28;11.00;;;8.87;;
68947;SDS011;55996;49.546;7.400;2022-12-10T09:08:55;11.50;;;8.17;;
68947;SDS011;55996;49.546;7.400;2022-12-10T09:11:25;11.30;;;8.20;;
68947;SDS011;55996;49.546;7.400;2022-12-10T09:13:52;10.70;;;8.40;;
68947;SDS011;55996;49.546;7.400;2022-12-10T09:16:18;10.07;;;8.37;;
68947;SDS011;55996;49.546;7.400;2022-12-10T09:18:44;8.50;;;7.23;;
68947;SDS011;55996;49.546;7.400;2022-12-10T09:21:14;10.47;;;7.87;;
68947;SDS011;55996;49.546;7.400;2022-12-10T09:23:41;10.83;;;8.27;;
68947;SDS011;55996;49.546;7.400;2022-12-10T09:26:08;9.63;;;7.40;;
68947;SDS011;55996;49.546;7.400;2022-12-10T09:28:35;10.23;;;7.97;;
68947;SDS011;55996;49.546;7.400;2022-12-10T09:31:01;10.87;;;7.27;;
68947;SDS011;55996;49.546;7.400;2022-12-10T09:33:29;9.40;;;7.17;;
68947;SDS011;55996;49.546;7.400;2022-12-10T09:35:56;9.17;;;7.50;;
68947;SDS011;55996;49.546;7.400;2022-12-10T09:38:21;8.47;;;7.30;;
68947;SDS011;55996;49.546;7.400;2022-12-10T09:43:23;10.73;;;8.03;;
68947;SDS011;55996;49.546;7.400;2022-12-10T09:49:10;8.27;;;6.73;;
68947;SDS011;55996;49.546;7.400;2022-12-10T09:51:44;11.67;;;6.93;;
68947;SDS011;55996;49.546;7.400;2022-12-10T09:56:51;7.33;;;6.23;;
68947;SDS011;55996;49.546;7.400;2022-12-10T10:05:01;8.53;;;6.73;;
68947;SDS011;55996;49.546;7.400;2022-12-10T10:07:31;8.73;;;7.37;;
68947;SDS011;55996;49.546;7.400;2022-12-10T10:09:59;8.83;;;6.30;;
68947;SDS011;55996;49.546;7.400;2022-12-10T10:12:30;9.20;;;6.53;;
68947;SDS011;55996;49.546;7.400;2022-12-10T10:14:58;8.20;;;7.07;;
68947;SDS011;55996;49.546;7.400;2022-12-10T10:17:36;9.33;;;7.13;;
68947;SDS011;55996;49.546;7.400;2022-12-10T10:20:03;9.37;;;7.30;;
68947;SDS011;55996;49.546;7.400;2022-12-10T10:22:29;9.10;;;6.67;;
68947;SDS011;55996;49.546;7.400;2022-12-10T10:24:55;6.63;;;5.93;;
68947;SDS011;55996;49.546;7.400;2022-12-10T10:27:22;7.50;;;6.37;;
68947;SDS011;55996;49.546;7.400;2022-12-10T10:29:51;8.23;;;6.43;;
68947;SDS011;55996;49.546;7.400;2022-12-10T10:34:44;7.70;;;6.30;;
68947;SDS011;55996;49.546;7.400;2022-12-10T10:37:21;8.00;;;6.40;;
68947;SDS011;55996;49.546;7.400;2022-12-10T10:39:50;7.23;;;5.97;;
68947;SDS011;55996;49.546;7.400;2022-12-10T10:44:57;6.37;;;5.47;;
68947;SDS011;55996;49.546;7.400;2022-12-10T10:47:24;9.20;;;6.63;;
68947;SDS011;55996;49.546;7.400;2022-12-10T10:49:55;7.97;;;6.20;;
68947;SDS011;55996;49.546;7.400;2022-12-10T10:52:20;8.03;;;6.80;;
68947;SDS011;55996;49.546;7.400;2022-12-10T10:54:46;7.20;;;6.37;;
68947;SDS011;55996;49.546;7.400;2022-12-10T10:59:41;8.57;;;6.60;;
68947;SDS011;55996;49.546;7.400;2022-12-10T11:02:24;7.57;;;6.17;;
68947;SDS011;55996;49.546;7.400;2022-12-10T11:04:55;5.87;;;5.27;;
68947;SDS011;55996;49.546;7.400;2022-12-10T11:10:02;6.27;;;5.50;;
68947;SDS011;55996;49.546;7.400;2022-12-10T11:12:41;7.93;;;6.33;;
68947;SDS011;55996;49.546;7.400;2022-12-10T11:17:52;8.07;;;6.03;;
68947;SDS011;55996;49.546;7.400;2022-12-10T11:22:51;6.73;;;5.77;;
68947;SDS011;55996;49.546;7.400;2022-12-10T11:25:19;7.20;;;6.20;;
68947;SDS011;55996;49.546;7.400;2022-12-10T11:33:52;7.07;;;6.37;;
68947;SDS011;55996;49.546;7.400;2022-12-10T11:41:37;7.40;;;5.77;;
68947;SDS011;55996;49.546;7.400;2022-12-10T11:52:47;6.80;;;5.43;;
68947;SDS011;55996;49.546;7.400;2022-12-10T12:00:59;8.30;;;5.87;;
68947;SDS011;55996;49.546;7.400;2022-12-10T12:03:43;6.10;;;5.30;;
68947;SDS011;55996;49.546;7.400;2022-12-10T12:06:34;7.37;;;5.80;;
68947;SDS011;55996;49.546;7.400;2022-12-10T12:09:12;6.27;;;5.63;;
68947;SDS011;55996;49.546;7.400;2022-12-10T12:12:05;7.60;;;5.83;;
68947;SDS011;55996;49.546;7.400;2022-12-10T12:14:57;6.80;;;5.97;;
68947;SDS011;55996;49.546;7.400;2022-12-10T12:17:27;6.73;;;5.80;;
68947;SDS011;55996;49.546;7.400;2022-12-10T12:19:58;6.83;;;5.80;;
68947;SDS011;55996;49.546;7.400;2022-12-10T12:22:33;7.23;;;6.20;;
68947;SDS011;55996;49.546;7.400;2022-12-10T12:25:02;7.90;;;6.60;;
68947;SDS011;55996;49.546;7.400;2022-12-10T12:35:10;6.93;;;5.93;;
68947;SDS011;55996;49.546;7.400;2022-12-10T12:37:48;6.97;;;5.83;;
68947;SDS011;55996;49.546;7.400;2022-12-10T12:43:31;6.90;;;5.67;;
68947;SDS011;55996;49.546;7.400;2022-12-10T12:45:52;7.17;;;5.73;;
68947;SDS011;55996;49.546;7.400;2022-12-10T12:50:54;7.43;;;5.43;;
68947;SDS011;55996;49.546;7.400;2022-12-10T12:53:25;8.00;;;5.77;;
68947;SDS011;55996;49.546;7.400;2022-12-10T13:05:04;7.70;;;6.20;;
68947;SDS011;55996;49.546;7.400;2022-12-10T13:07:31;7.80;;;6.43;;
68947;SDS011;55996;49.546;7.400;2022-12-10T13:10:18;10.23;;;6.30;;
68947;SDS011;55996;49.546;7.400;2022-12-10T13:12:50;7.33;;;6.33;;
68947;SDS011;55996;49.546;7.400;2022-12-10T13:15:35;7.27;;;5.63;;
68947;SDS011;55996;49.546;7.400;2022-12-10T13:23:47;7.27;;;6.10;;
68947;SDS011;55996;49.546;7.400;2022-12-10T13:26:28;6.40;;;5.70;;
68947;SDS011;55996;49.546;7.400;2022-12-10T13:28:56;7.43;;;5.70;;
68947;SDS011;55996;49.546;7.400;2022-12-10T13:31:38;6.87;;;5.87;;
68947;SDS011;55996;49.546;7.400;2022-12-10T13:50:00;8.90;;;6.43;;
68947;SDS011;55996;49.546;7.400;2022-12-10T13:52:32;7.13;;;6.37;;
68947;SDS011;55996;49.546;7.400;2022-12-10T13:57:53;7.87;;;6.30;;
68947;SDS011;55996;49.546;7.400;2022-12-10T14:00:41;8.90;;;6.53;;
68947;SDS011;55996;49.546;7.400;2022-12-10T14:06:20;8.70;;;6.00;;
68947;SDS011;55996;49.546;7.400;2022-12-10T14:11:20;9.33;;;6.33;;
68947;SDS011;55996;49.546;7.400;2022-12-10T14:13:49;7.83;;;6.60;;
68947;SDS011;55996;49.546;7.400;2022-12-10T14:16:20;10.73;;;7.03;;
68947;SDS011;55996;49.546;7.400;2022-12-10T14:18:52;8.67;;;5.83;;
68947;SDS011;55996;49.546;7.400;2022-12-10T14:21:20;8.33;;;6.00;;
68947;SDS011;55996;49.546;7.400;2022-12-10T14:23:47;7.90;;;6.20;;
68947;SDS011;55996;49.546;7.400;2022-12-10T14:26:17;7.80;;;6.97;;
68947;SDS011;55996;49.546;7.400;2022-12-10T14:28:47;8.07;;;6.70;;
68947;SDS011;55996;49.546;7.400;2022-12-10T14:34:06;8.83;;;7.03;;
68947;SDS011;55996;49.546;7.400;2022-12-10T14:36:39;8.97;;;7.33;;
68947;SDS011;55996;49.546;7.400;2022-12-10T14:39:12;8.67;;;6.63;;
68947;SDS011;55996;49.546;7.400;2022-12-10T14:41:40;8.87;;;6.80;;
68947;SDS011;55996;49.546;7.400;2022-12-10T14:44:08;11.03;;;6.97;;
68947;SDS011;55996;49.546;7.400;2022-12-10T14:46:39;8.63;;;6.93;;
68947;SDS011;55996;49.546;7.400;2022-12-10T14:49:04;9.10;;;6.47;;
68947;SDS011;55996;49.546;7.400;2022-12-10T14:51:33;8.13;;;6.17;;
68947;SDS011;55996;49.546;7.400;2022-12-10T14:54:02;8.87;;;6.87;;
68947;SDS011;55996;49.546;7.400;2022-12-10T14:56:35;10.63;;;7.40;;
68947;SDS011;55996;49.546;7.400;2022-12-10T15:01:44;8.33;;;6.50;;
68947;SDS011;55996;49.546;7.400;2022-12-10T15:04:13;9.23;;;6.63;;
68947;SDS011;55996;49.546;7.400;2022-12-10T15:06:41;7.40;;;6.03;;
68947;SDS011;55996;49.546;7.400;2022-12-10T15:09:22;8.60;;;6.73;;
68947;SDS011;55996;49.546;7.400;2022-12-10T15:11:54;8.90;;;6.20;;
68947;SDS011;55996;49.546;7.400;2022-12-10T15:14:23;8.00;;;6.73;;
68947;SDS011;55996;49.546;7.400;2022-12-10T15:16:51;7.83;;;6.23;;
68947;SDS011;55996;49.546;7.400;2022-12-10T15:21:49;8.00;;;6.17;;
68947;SDS011;55996;49.546;7.400;2022-12-10T15:24:17;10.10;;;7.03;;
68947;SDS011;55996;49.546;7.400;2022-12-10T15:26:44;10.20;;;6.50;;
68947;SDS011;55996;49.546;7.400;2022-12-10T15:31:56;8.83;;;7.40;;
68947;SDS011;55996;49.546;7.400;2022-12-10T15:34:25;7.00;;;5.90;;
68947;SDS011;55996;49.546;7.400;2022-12-10T15:36:54;6.87;;;6.10;;
68947;SDS011;55996;49.546;7.400;2022-12-10T15:39:25;10.30;;;7.17;;
68947;SDS011;55996;49.546;7.400;2022-12-10T15:41:54;7.83;;;6.00;;
68947;SDS011;55996;49.546;7.400;2022-12-10T15:49:48;7.93;;;6.10;;
68947;SDS011;55996;49.546;7.400;2022-12-10T15:52:16;8.83;;;6.63;;
68947;SDS011;55996;49.546;7.400;2022-12-10T15:54:46;9.23;;;6.00;;
68947;SDS011;55996;49.546;7.400;2022-12-10T15:57:27;7.67;;;6.07;;
68947;SDS011;55996;49.546;7.400;2022-12-10T15:59:58;7.83;;;6.60;;
68947;SDS011;55996;49.546;7.400;2022-12-10T16:02:45;7.40;;;5.60;;
68947;SDS011;55996;49.546;7.400;2022-12-10T16:07:52;7.70;;;6.33;;
68947;SDS011;55996;49.546;7.400;2022-12-10T16:10:19;10.10;;;6.87;;
68947;SDS011;55996;49.546;7.400;2022-12-10T16:12:48;9.40;;;6.60;;
68947;SDS011;55996;49.546;7.400;2022-12-10T16:15:20;7.87;;;6.90;;
68947;SDS011;55996;49.546;7.400;2022-12-10T16:17:48;9.83;;;6.87;;
68947;SDS011;55996;49.546;7.400;2022-12-10T16:22:53;10.53;;;7.30;;
68947;SDS011;55996;49.546;7.400;2022-12-10T16:25:21;9.57;;;6.87;;
68947;SDS011;55996;49.546;7.400;2022-12-10T16:27:48;9.67;;;7.70;;
68947;SDS011;55996;49.546;7.400;2022-12-10T16:32:45;9.20;;;6.97;;
68947;SDS011;55996;49.546;7.400;2022-12-10T16:35:10;8.50;;;6.97;;
68947;SDS011;55996;49.546;7.400;2022-12-10T16:37:39;9.90;;;7.37;;
68947;SDS011;55996;49.546;7.400;2022-12-10T16:40:16;9.57;;;6.60;;
68947;SDS011;55996;49.546;7.400;2022-12-10T16:42:43;9.87;;;6.97;;
68947;SDS011;55996;49.546;7.400;2022-12-10T16:45:11;11.77;;;8.63;;
68947;SDS011;55996;49.546;7.400;2022-12-10T16:47:42;10.13;;;7.97;;
68947;SDS011;55996;49.546;7.400;2022-12-10T16:50:09;9.10;;;6.90;;
68947;SDS011;55996;49.546;7.400;2022-12-10T16:52:35;8.33;;;6.53;;
68947;SDS011;55996;49.546;7.400;2022-12-10T16:55:01;10.80;;;6.83;;
68947;SDS011;55996;49.546;7.400;2022-12-10T16:57:27;9.30;;;6.63;;
68947;SDS011;55996;49.546;7.400;2022-12-10T16:59:52;8.77;;;6.83;;
68947;SDS011;55996;49.546;7.400;2022-12-10T17:02:18;9.30;;;6.30;;
68947;SDS011;55996;49.546;7.400;2022-12-10T17:04:45;10.80;;;8.10;;
68947;SDS011;55996;49.546;7.400;2022-12-10T17:07:11;10.87;;;8.23;;
68947;SDS011;55996;49.546;7.400;2022-12-10T17:09:37;10.97;;;7.83;;
68947;SDS011;55996;49.546;7.400;2022-12-10T17:12:03;11.13;;;7.73;;
68947;SDS011;55996;49.546;7.400;2022-12-10T17:14:32;12.20;;;8.53;;
68947;SDS011;55996;49.546;7.400;2022-12-10T17:17:00;12.13;;;7.90;;
68947;SDS011;55996;49.546;7.400;2022-12-10T17:19:32;13.57;;;9.17;;
68947;SDS011;55996;49.546;7.400;2022-12-10T17:22:00;13.07;;;9.57;;
68947;SDS011;55996;49.546;7.400;2022-12-10T17:24:26;12.50;;;8.80;;
68947;SDS011;55996;49.546;7.400;2022-12-10T17:26:51;12.93;;;9.67;;
68947;SDS011;55996;49.546;7.400;2022-12-10T17:29:24;12.20;;;8.50;;
68947;SDS011;55996;49.546;7.400;2022-12-10T17:31:52;11.43;;;8.63;;